createdAt,value
2019-05-06T00:00:59.750Z,13.28
2019-05-06T00:03:26.911Z,15.25
2019-05-06T00:05:54.300Z,9.78
2019-05-06T00:08:23.389Z,10.60
2019-05-06T00:10:49.605Z,12.23
2019-05-06T00:13:16.237Z,10.68
2019-05-06T00:15:43.683Z,11.10
2019-05-06T00:18:10.694Z,9.63
2019-05-06T00:20:37.288Z,14.10
2019-05-06T00:23:06.160Z,13.88
2019-05-06T00:25:40.474Z,15.75
2019-05-06T00:28:09.058Z,18.52
2019-05-06T00:31:12.199Z,16.15
2019-05-06T00:33:28.625Z,14.47
2019-05-06T00:35:55.191Z,18.15
2019-05-06T00:38:24.721Z,15.60
2019-05-06T00:40:56.185Z,17.62
2019-05-06T00:43:23.582Z,12.30
2019-05-06T00:45:50.298Z,13.38
2019-05-06T00:48:16.998Z,15.00
2019-05-06T00:50:44.145Z,13.85
2019-05-06T00:53:14.165Z,13.72
2019-05-06T00:55:44.486Z,13.83
2019-05-06T00:58:09.474Z,17.23
2019-05-06T01:00:37.844Z,10.35
2019-05-06T01:03:05.132Z,14.58
2019-05-06T01:05:33.611Z,12.70
2019-05-06T01:08:00.119Z,8.10
2019-05-06T01:10:26.738Z,11.43
2019-05-06T01:12:55.252Z,11.73
2019-05-06T01:15:23.896Z,15.90
2019-05-06T01:17:50.283Z,10.43
2019-05-06T01:20:18.066Z,11.48
2019-05-06T01:22:44.625Z,12.45
2019-05-06T01:25:11.399Z,10.95
2019-05-06T01:27:38.603Z,15.00
2019-05-06T01:30:06.321Z,11.60
2019-05-06T01:32:34.546Z,10.28
2019-05-06T01:35:01.211Z,18.98
2019-05-06T01:37:28.245Z,18.95
2019-05-06T01:40:08.555Z,13.50
2019-05-06T01:42:54.149Z,11.63
2019-05-06T01:45:21.072Z,12.63
2019-05-06T01:47:47.932Z,11.70
2019-05-06T01:50:15.151Z,14.28
2019-05-06T01:52:41.731Z,10.58
2019-05-06T01:55:08.674Z,13.65
2019-05-06T01:57:35.754Z,13.45
2019-05-06T02:00:05.505Z,12.30
2019-05-06T02:05:01.162Z,10.03
2019-05-06T02:07:27.864Z,13.38
2019-05-06T02:09:54.485Z,9.80
2019-05-06T02:12:21.267Z,12.43
2019-05-06T02:14:47.962Z,11.95
2019-05-06T02:17:14.612Z,11.65
2019-05-06T02:19:43.829Z,12.45
2019-05-06T02:22:15.102Z,11.22
2019-05-06T02:27:16.248Z,12.13
2019-05-06T02:29:50.394Z,12.90
2019-05-06T02:32:27.053Z,11.63
2019-05-06T02:34:54.998Z,9.83
2019-05-06T02:37:26.330Z,12.88
2019-05-06T02:42:20.372Z,12.85
2019-05-06T02:44:46.962Z,11.00
2019-05-06T02:47:15.396Z,12.88
2019-05-06T02:49:44.398Z,11.40
2019-05-06T02:52:13.805Z,12.33
2019-05-06T02:54:42.962Z,10.95
2019-05-06T02:57:09.468Z,12.35
2019-05-06T02:59:37.194Z,14.68
2019-05-06T03:02:03.936Z,15.58
2019-05-06T03:04:33.287Z,16.55
2019-05-06T03:06:58.989Z,11.50
2019-05-06T03:09:25.937Z,17.17
2019-05-06T03:11:53.981Z,13.83
2019-05-06T03:14:23.375Z,15.40
2019-05-06T03:16:53.409Z,19.15
2019-05-06T03:19:19.097Z,18.30
2019-05-06T03:22:05.681Z,18.05
2019-05-06T03:24:37.328Z,21.27
2019-05-06T03:27:04.827Z,18.07
2019-05-06T03:29:33.394Z,17.65
2019-05-06T03:32:00.153Z,16.62
2019-05-06T03:34:49.209Z,14.95
2019-05-06T03:36:56.713Z,17.48
2019-05-06T03:39:25.662Z,19.03
2019-05-06T03:41:53.640Z,16.05
2019-05-06T03:44:23.635Z,21.25
2019-05-06T03:47:07.648Z,14.55
2019-05-06T03:49:36.276Z,14.73
2019-05-06T03:52:03.045Z,22.27
2019-05-06T03:54:34.011Z,13.65
2019-05-06T03:57:03.007Z,11.10
2019-05-06T03:59:29.280Z,16.05
2019-05-06T04:01:55.966Z,16.77
2019-05-06T04:04:23.357Z,13.28
2019-05-06T04:06:53.135Z,16.27
2019-05-06T04:09:19.153Z,13.10
2019-05-06T04:11:46.329Z,14.87
2019-05-06T04:14:16.042Z,14.95
2019-05-06T04:16:47.737Z,15.80
2019-05-06T04:19:26.501Z,12.37
2019-05-06T04:21:55.206Z,15.93
2019-05-06T04:24:23.966Z,12.98
2019-05-06T04:27:03.024Z,18.10
2019-05-06T04:29:35.217Z,15.35
2019-05-06T04:31:59.145Z,20.30
2019-05-06T04:34:28.528Z,14.50
2019-05-06T04:36:55.565Z,19.95
2019-05-06T04:39:23.344Z,16.62
2019-05-06T04:41:53.613Z,16.85
2019-05-06T04:44:18.990Z,20.45
2019-05-06T04:46:45.718Z,20.35
2019-05-06T04:49:15.152Z,18.32
2019-05-06T04:51:43.105Z,16.90
2019-05-06T04:54:13.029Z,18.07
2019-05-06T04:56:38.095Z,16.15
2019-05-06T04:59:06.435Z,17.27
2019-05-06T05:01:34.180Z,16.93
2019-05-06T05:04:03.473Z,18.55
2019-05-06T05:06:32.846Z,16.82
2019-05-06T05:08:59.631Z,18.70
2019-05-06T05:11:28.095Z,20.43
2019-05-06T05:14:13.435Z,20.27
2019-05-06T05:16:52.825Z,23.67
2019-05-06T05:19:19.593Z,26.55
2019-05-06T05:21:46.469Z,25.77
2019-05-06T05:24:13.039Z,28.05
2019-05-06T05:26:43.076Z,28.80
2019-05-06T05:29:09.485Z,27.27
2019-05-06T05:31:36.225Z,26.25
2019-05-06T05:34:03.311Z,25.00
2019-05-06T05:36:32.610Z,20.20
2019-05-06T05:38:59.268Z,21.85
2019-05-06T05:41:26.126Z,20.85
2019-05-06T05:43:57.677Z,12.75
2019-05-06T05:48:55.630Z,22.25
2019-05-06T05:51:22.325Z,15.50
2019-05-06T05:53:49.248Z,16.73
2019-05-06T05:56:15.890Z,16.12
2019-05-06T05:58:42.749Z,12.60
2019-05-06T06:01:09.546Z,13.65
2019-05-06T06:03:36.478Z,13.75
2019-05-06T06:06:03.335Z,13.45
2019-05-06T06:08:32.104Z,17.87
2019-05-06T06:11:12.288Z,18.17
2019-05-06T06:13:39.014Z,14.58
2019-05-06T06:16:16.542Z,15.98
2019-05-06T06:18:48.135Z,13.70
2019-05-06T06:21:33.257Z,16.87
2019-05-06T06:24:04.961Z,13.30
2019-05-06T06:26:32.532Z,22.37
2019-05-06T06:28:59.159Z,16.55
2019-05-06T06:31:39.737Z,16.00
2019-05-06T06:34:09.737Z,14.20
2019-05-06T06:36:44.299Z,13.28
2019-05-06T06:39:12.691Z,20.68
2019-05-06T06:41:39.375Z,18.25
2019-05-06T06:44:13.096Z,17.40
2019-05-06T06:46:40.279Z,22.75
2019-05-06T06:49:07.189Z,16.15
2019-05-06T06:51:34.235Z,23.60
2019-05-06T06:54:02.501Z,19.87
2019-05-06T06:56:32.952Z,20.00
2019-05-06T06:59:16.627Z,17.30
2019-05-06T07:01:53.428Z,15.72
2019-05-06T07:04:23.138Z,15.38
2019-05-06T07:06:53.141Z,16.40
2019-05-06T07:09:20.025Z,20.75
2019-05-06T07:11:46.533Z,18.48
2019-05-06T07:14:13.721Z,14.18
2019-05-06T07:16:42.868Z,16.25
2019-05-06T07:19:08.775Z,13.50
2019-05-06T07:21:45.933Z,16.60
2019-05-06T07:24:13.124Z,19.07
2019-05-06T07:26:44.724Z,16.10
2019-05-06T07:29:15.288Z,13.18
2019-05-06T07:31:42.513Z,16.25
2019-05-06T07:34:09.419Z,18.67
2019-05-06T07:36:35.866Z,16.05
2019-05-06T07:39:05.271Z,15.43
2019-05-06T07:41:36.918Z,23.30
2019-05-06T07:46:52.499Z,16.85
2019-05-06T07:49:19.507Z,16.40
2019-05-06T07:52:06.378Z,18.42
2019-05-06T07:54:33.119Z,18.92
2019-05-06T07:57:01.825Z,22.60
2019-05-06T07:59:27.949Z,21.17
2019-05-06T08:01:54.683Z,16.50
2019-05-06T08:04:22.937Z,17.67
2019-05-06T08:06:49.468Z,15.13
2019-05-06T08:09:16.124Z,20.50
2019-05-06T08:11:44.383Z,17.20
2019-05-06T08:14:13.009Z,20.97
2019-05-06T08:16:58.202Z,20.40
2019-05-06T08:19:24.824Z,16.37
2019-05-06T08:21:53.408Z,16.65
2019-05-06T08:24:19.950Z,18.30
2019-05-06T08:26:46.742Z,18.27
2019-05-06T08:29:15.906Z,17.40
2019-05-06T08:31:44.003Z,21.10
2019-05-06T08:34:12.285Z,20.27
2019-05-06T08:36:42.601Z,17.27
2019-05-06T08:39:09.707Z,19.23
2019-05-06T08:41:36.632Z,22.20
2019-05-06T08:44:03.739Z,19.67
2019-05-06T08:46:32.642Z,19.85
2019-05-06T08:49:03.035Z,18.25
2019-05-06T08:51:38.823Z,22.37
2019-05-06T08:54:13.432Z,15.63
2019-05-06T08:56:42.538Z,19.17
2019-05-06T08:59:42.325Z,18.55
2019-05-06T09:02:09.290Z,18.65
2019-05-06T09:04:35.975Z,18.42
2019-05-06T09:07:03.118Z,18.57
2019-05-06T09:09:32.399Z,18.52
2019-05-06T09:11:59.019Z,17.52
2019-05-06T09:14:25.707Z,22.50
2019-05-06T09:16:53.854Z,18.50
2019-05-06T09:19:23.118Z,17.57
2019-05-06T09:21:49.697Z,17.35
2019-05-06T09:24:16.584Z,18.32
2019-05-06T09:26:52.278Z,19.02
2019-05-06T09:29:27.021Z,18.52
2019-05-06T09:31:55.783Z,19.02
2019-05-06T09:34:36.884Z,15.18
2019-05-06T09:37:14.446Z,15.25
2019-05-06T09:39:43.348Z,14.87
2019-05-06T09:42:12.654Z,13.13
2019-05-06T09:44:39.162Z,12.23
2019-05-06T09:47:07.933Z,18.17
2019-05-06T09:49:36.952Z,17.15
2019-05-06T09:52:03.949Z,17.90
2019-05-06T09:54:32.604Z,18.62
2019-05-06T09:57:06.982Z,18.05
2019-05-06T09:59:33.834Z,18.57
2019-05-06T10:02:00.419Z,19.27
2019-05-06T10:04:27.146Z,20.23
2019-05-06T10:06:57.206Z,17.30
2019-05-06T10:09:32.760Z,16.35
2019-05-06T10:12:01.935Z,17.45
2019-05-06T10:14:29.586Z,15.50
2019-05-06T10:16:56.603Z,16.00
2019-05-06T10:19:23.428Z,14.15
2019-05-06T10:21:52.877Z,16.30
2019-05-06T10:24:19.312Z,14.07
2019-05-06T10:26:48.301Z,16.70
2019-05-06T10:29:22.124Z,12.78
2019-05-06T10:31:52.379Z,17.10
2019-05-06T10:34:19.139Z,16.67
2019-05-06T10:36:49.857Z,16.48
2019-05-06T10:39:22.787Z,14.00
2019-05-06T10:42:13.639Z,16.93
2019-05-06T10:47:12.025Z,16.90
2019-05-06T10:49:39.249Z,16.17
2019-05-06T10:52:08.210Z,15.85
2019-05-06T10:54:36.254Z,17.32
2019-05-06T10:57:13.940Z,15.45
2019-05-06T10:59:42.930Z,20.82
2019-05-06T11:02:12.963Z,21.17
2019-05-06T11:04:39.884Z,19.45
2019-05-06T11:07:07.097Z,20.20
2019-05-06T11:09:37.040Z,18.77
2019-05-06T11:12:04.147Z,21.02
2019-05-06T11:14:32.896Z,18.60
2019-05-06T11:16:59.591Z,22.05
2019-05-06T11:19:26.217Z,21.93
2019-05-06T11:21:53.293Z,19.50
2019-05-06T11:24:22.959Z,14.00
2019-05-06T11:26:48.900Z,12.23
2019-05-06T11:29:17.641Z,13.20
2019-05-06T11:31:49.670Z,13.98
2019-05-06T11:34:32.476Z,13.43
2019-05-06T11:37:19.400Z,17.95
2019-05-06T11:39:45.989Z,15.75
2019-05-06T11:42:24.977Z,17.52
2019-05-06T11:44:44.115Z,10.48
2019-05-06T11:47:12.378Z,9.85
2019-05-06T11:49:38.308Z,12.03
2019-05-06T11:52:05.226Z,9.50
2019-05-06T11:54:33.725Z,8.98
2019-05-06T11:57:02.926Z,8.68
2019-05-06T11:59:30.096Z,9.70
2019-05-06T12:02:07.595Z,10.20
2019-05-06T12:04:34.647Z,10.32
2019-05-06T12:07:10.263Z,13.65
2019-05-06T12:09:33.056Z,11.40
2019-05-06T12:12:00.290Z,23.65
2019-05-06T12:14:27.336Z,16.02
2019-05-06T12:16:55.074Z,19.98
2019-05-06T12:19:22.675Z,15.93
2019-05-06T12:21:49.636Z,12.80
2019-05-06T12:24:16.354Z,8.88
2019-05-06T12:26:43.141Z,9.13
2019-05-06T12:29:09.876Z,8.40
2019-05-06T12:31:36.900Z,9.55
2019-05-06T12:34:03.694Z,10.53
2019-05-06T12:36:32.592Z,11.38
2019-05-06T12:39:18.734Z,11.15
2019-05-06T12:41:53.413Z,13.65
2019-05-06T12:44:22.920Z,14.58
2019-05-06T12:46:53.923Z,14.55
2019-05-06T12:49:20.757Z,15.38
2019-05-06T12:51:47.493Z,15.20
2019-05-06T12:54:14.073Z,13.72
2019-05-06T12:56:42.535Z,18.10
2019-05-06T12:59:09.174Z,16.82
2019-05-06T13:01:35.827Z,18.42
2019-05-06T13:04:04.650Z,16.07
2019-05-06T13:06:33.456Z,16.50
2019-05-06T13:09:04.150Z,13.20
2019-05-06T13:11:31.329Z,14.60
2019-05-06T13:14:00.793Z,18.65
2019-05-06T13:16:26.929Z,16.62
2019-05-06T13:18:54.886Z,15.80
2019-05-06T13:21:22.320Z,14.78
2019-05-06T13:23:53.381Z,13.38
2019-05-06T13:26:22.111Z,12.25
2019-05-06T13:28:50.367Z,13.38
2019-05-06T13:31:21.635Z,15.53
2019-05-06T13:33:54.091Z,13.65
2019-05-06T13:36:22.687Z,13.62
2019-05-06T13:38:49.430Z,8.60
2019-05-06T13:41:16.421Z,9.00
2019-05-06T13:43:49.968Z,8.13
2019-05-06T13:46:24.960Z,4.70
2019-05-06T13:49:03.067Z,4.17
2019-05-06T13:51:35.138Z,5.42
2019-05-06T13:54:02.557Z,5.47
2019-05-06T13:56:29.562Z,4.92
2019-05-06T13:58:56.735Z,5.17
2019-05-06T14:01:43.510Z,6.37
2019-05-06T14:04:12.922Z,7.40
2019-05-06T14:06:39.943Z,6.10
2019-05-06T14:09:07.116Z,6.80
2019-05-06T14:11:34.603Z,3.75
2019-05-06T14:14:03.593Z,6.33
2019-05-06T14:16:33.545Z,5.15
2019-05-06T14:18:59.821Z,5.53
2019-05-06T14:21:26.805Z,6.03
2019-05-06T14:23:54.628Z,6.22
2019-05-06T14:26:33.261Z,5.15
2019-05-06T14:29:08.415Z,7.33
2019-05-06T14:31:37.506Z,9.03
2019-05-06T14:34:04.339Z,7.85
2019-05-06T14:36:32.775Z,8.93
2019-05-06T14:39:04.603Z,6.17
2019-05-06T14:41:32.722Z,7.97
2019-05-06T14:43:59.351Z,7.35
2019-05-06T14:46:29.635Z,7.35
2019-05-06T14:48:56.541Z,6.28
2019-05-06T14:51:23.281Z,6.53
2019-05-06T14:53:52.776Z,7.53
2019-05-06T14:56:22.568Z,6.78
2019-05-06T14:59:06.129Z,8.73
2019-05-06T15:01:34.219Z,9.15
2019-05-06T15:04:03.384Z,6.35
2019-05-06T15:06:36.410Z,5.25
2019-05-06T15:09:06.386Z,8.08
2019-05-06T15:11:33.366Z,6.92
2019-05-06T15:14:03.469Z,5.50
2019-05-06T15:16:29.192Z,8.70
2019-05-06T15:18:56.134Z,5.45
2019-05-06T15:21:37.100Z,11.50
2019-05-06T15:23:53.029Z,11.57
2019-05-06T15:26:20.139Z,8.35
2019-05-06T15:28:47.320Z,6.58
2019-05-06T15:31:16.501Z,4.85
2019-05-06T15:33:45.266Z,5.58
2019-05-06T15:36:26.441Z,7.62
2019-05-06T15:41:22.299Z,9.18
2019-05-06T15:43:49.054Z,13.88
2019-05-06T15:46:16.441Z,11.43
2019-05-06T15:48:43.691Z,10.75
2019-05-06T15:51:12.228Z,11.88
2019-05-06T15:53:39.637Z,7.17
2019-05-06T15:56:06.537Z,8.60
2019-05-06T15:58:33.542Z,8.00
2019-05-06T16:01:02.938Z,9.68
2019-05-06T16:03:29.537Z,7.28
2019-05-06T16:05:56.482Z,9.78
2019-05-06T16:08:24.494Z,8.85
2019-05-06T16:10:55.738Z,9.70
2019-05-06T16:13:22.292Z,7.15
2019-05-06T16:15:49.061Z,7.83
2019-05-06T16:18:25.538Z,10.28
2019-05-06T16:20:52.651Z,5.67
2019-05-06T16:23:24.050Z,6.20
2019-05-06T16:25:52.434Z,6.92
2019-05-06T16:28:22.474Z,5.70
2019-05-06T16:30:50.305Z,5.70
2019-05-06T16:33:19.068Z,5.42
2019-05-06T16:35:46.430Z,6.42
2019-05-06T16:38:13.358Z,6.10
2019-05-06T16:40:45.030Z,5.87
2019-05-06T16:43:12.501Z,5.72
2019-05-06T16:45:39.441Z,6.72
2019-05-06T16:48:08.027Z,7.12
2019-05-06T16:50:35.286Z,5.62
2019-05-06T16:53:02.816Z,6.00
2019-05-06T16:55:48.316Z,7.00
2019-05-06T16:58:17.387Z,6.72
2019-05-06T17:00:44.636Z,4.50
2019-05-06T17:03:19.674Z,5.08
2019-05-06T17:06:05.354Z,4.92
2019-05-06T17:08:35.949Z,4.85
2019-05-06T17:11:04.386Z,7.17
2019-05-06T17:13:33.493Z,5.20
2019-05-06T17:15:58.486Z,9.38
2019-05-06T17:18:25.419Z,5.65
2019-05-06T17:20:52.391Z,5.55
2019-05-06T17:23:19.054Z,4.87
2019-05-06T17:25:45.885Z,7.83
2019-05-06T17:28:27.003Z,7.67
2019-05-06T17:30:58.254Z,5.30
2019-05-06T17:36:14.833Z,6.53
2019-05-06T17:38:44.450Z,4.03
2019-05-06T17:41:12.341Z,6.05
2019-05-06T17:43:41.092Z,6.90
2019-05-06T17:46:08.588Z,6.28
2019-05-06T17:48:37.283Z,6.35
2019-05-06T17:51:08.307Z,6.00
2019-05-06T17:53:36.235Z,4.28
2019-05-06T17:56:03.863Z,7.87
2019-05-06T17:58:33.202Z,4.17
2019-05-06T18:01:03.302Z,6.45
2019-05-06T18:03:32.555Z,4.90
2019-05-06T18:05:59.118Z,3.50
2019-05-06T18:08:26.341Z,5.75
2019-05-06T18:10:53.822Z,3.83
2019-05-06T18:13:21.978Z,6.75
2019-05-06T18:15:49.119Z,3.62
2019-05-06T18:18:15.813Z,7.40
2019-05-06T18:20:43.309Z,6.80
2019-05-06T18:23:12.732Z,6.08
2019-05-06T18:25:39.383Z,6.12
2019-05-06T18:28:05.932Z,5.22
2019-05-06T18:30:36.889Z,6.20
2019-05-06T18:33:02.393Z,6.35
2019-05-06T18:35:29.287Z,7.55
2019-05-06T18:37:56.959Z,6.35
2019-05-06T18:40:24.021Z,7.00
2019-05-06T18:42:52.497Z,6.67
2019-05-06T18:45:21.937Z,5.58
2019-05-06T18:47:48.840Z,5.53
2019-05-06T18:51:03.574Z,6.20
2019-05-06T18:53:03.664Z,7.35
2019-05-06T18:55:32.543Z,8.18
2019-05-06T18:58:02.214Z,6.80
2019-05-06T19:00:28.844Z,2.55
2019-05-06T19:02:55.793Z,8.33
2019-05-06T19:05:26.984Z,3.33
2019-05-06T19:07:53.280Z,3.92
2019-05-06T19:10:33.187Z,4.60
2019-05-06T19:13:01.816Z,4.97
2019-05-06T19:15:29.761Z,7.50
2019-05-06T19:17:56.623Z,6.97
2019-05-06T19:20:24.454Z,5.42
2019-05-06T19:22:53.395Z,6.35
2019-05-06T19:25:20.023Z,4.62
2019-05-06T19:27:46.760Z,8.68
2019-05-06T19:30:13.740Z,4.00
2019-05-06T19:32:43.302Z,6.20
2019-05-06T19:35:10.101Z,4.90
2019-05-06T19:37:36.803Z,3.87
2019-05-06T19:40:04.922Z,4.78
2019-05-06T19:42:43.694Z,5.87
2019-05-06T19:45:02.524Z,7.20
2019-05-06T19:47:31.887Z,5.17
2019-05-06T19:49:58.190Z,4.85
2019-05-06T19:52:25.196Z,4.45
2019-05-06T19:54:52.367Z,5.95
2019-05-06T19:57:19.098Z,6.67
2019-05-06T19:59:46.083Z,5.67
2019-05-06T20:02:13.119Z,2.75
2019-05-06T20:04:44.085Z,6.42
2019-05-06T20:07:18.072Z,4.50
2019-05-06T20:09:48.123Z,3.67
2019-05-06T20:12:26.158Z,6.37
2019-05-06T20:14:55.047Z,5.10
2019-05-06T20:17:22.391Z,4.87
2019-05-06T20:19:49.203Z,4.20
2019-05-06T20:22:16.031Z,5.95
2019-05-06T20:24:44.562Z,6.72
2019-05-06T20:27:13.281Z,4.33
2019-05-06T20:29:42.645Z,4.65
2019-05-06T20:32:12.174Z,4.80
2019-05-06T20:34:38.788Z,6.42
2019-05-06T20:37:05.393Z,4.95
2019-05-06T20:39:32.627Z,6.65
2019-05-06T20:41:59.911Z,4.12
2019-05-06T20:44:26.858Z,3.67
2019-05-06T20:46:55.710Z,5.72
2019-05-06T20:49:22.515Z,5.67
2019-05-06T20:51:49.275Z,4.62
2019-05-06T20:54:16.247Z,5.40
2019-05-06T20:56:44.820Z,4.87
2019-05-06T20:59:12.162Z,5.85
2019-05-06T21:01:39.156Z,5.83
2019-05-06T21:04:05.897Z,6.05
2019-05-06T21:06:33.196Z,6.17
2019-05-06T21:09:00.033Z,5.05
2019-05-06T21:11:29.323Z,5.17
2019-05-06T21:13:55.352Z,4.97
2019-05-06T21:16:22.588Z,7.15
2019-05-06T21:18:49.564Z,6.53
2019-05-06T21:21:16.893Z,6.87
2019-05-06T21:23:44.024Z,6.42
2019-05-06T21:26:13.497Z,7.42
2019-05-06T21:28:42.516Z,7.80
2019-05-06T21:31:09.393Z,7.20
2019-05-06T21:33:36.735Z,6.22
2019-05-06T21:36:03.739Z,9.25
2019-05-06T21:38:30.760Z,11.18
2019-05-06T21:40:57.938Z,8.88
2019-05-06T21:43:25.147Z,8.95
2019-05-06T21:45:54.154Z,8.93
2019-05-06T21:48:22.245Z,10.70
2019-05-06T21:50:49.354Z,10.28
2019-05-06T21:53:16.119Z,12.13
2019-05-06T21:55:46.203Z,10.68
2019-05-06T21:58:13.066Z,9.03
2019-05-06T22:00:43.458Z,12.37
2019-05-06T22:03:13.199Z,9.70
2019-05-06T22:05:39.727Z,8.33
2019-05-06T22:08:06.874Z,9.45
2019-05-06T22:10:34.103Z,10.28
2019-05-06T22:13:01.020Z,9.30
2019-05-06T22:15:28.226Z,8.00
2019-05-06T22:17:57.525Z,9.33
2019-05-06T22:20:24.949Z,11.15
2019-05-06T22:22:52.441Z,7.90
2019-05-06T22:25:21.972Z,9.18
2019-05-06T22:27:51.781Z,11.83
2019-05-06T22:30:19.372Z,8.88
2019-05-06T22:33:04.987Z,13.05
2019-05-06T22:35:32.548Z,7.80
2019-05-06T22:37:59.586Z,10.38
2019-05-06T22:40:26.403Z,9.53
2019-05-06T22:42:54.069Z,9.55
2019-05-06T22:45:22.275Z,10.18
2019-05-06T22:47:48.984Z,9.83
2019-05-06T22:50:15.914Z,8.75
2019-05-06T22:52:42.919Z,9.15
2019-05-06T22:55:12.896Z,10.40
2019-05-06T22:57:39.024Z,11.68
2019-05-06T23:00:09.141Z,9.38
2019-05-06T23:02:39.870Z,10.72
2019-05-06T23:05:07.532Z,10.18
2019-05-06T23:07:34.526Z,10.28
2019-05-06T23:10:01.793Z,8.90
2019-05-06T23:12:28.536Z,13.43
2019-05-06T23:14:55.521Z,11.30
2019-05-06T23:17:22.467Z,13.22
2019-05-06T23:19:49.136Z,9.93
2019-05-06T23:22:16.271Z,13.85
2019-05-06T23:24:43.525Z,11.55
2019-05-06T23:27:12.521Z,11.03
2019-05-06T23:29:39.308Z,9.48
2019-05-06T23:32:06.494Z,9.13
2019-05-06T23:34:33.624Z,12.30
2019-05-06T23:37:04.023Z,11.65
2019-05-06T23:40:12.598Z,11.38
2019-05-06T23:43:16.709Z,10.82
2019-05-06T23:46:22.786Z,10.48
2019-05-06T23:49:27.017Z,11.00
2019-05-06T23:52:31.999Z,9.85
2019-05-06T23:55:36.383Z,15.00
2019-05-06T23:58:03.125Z,10.13
